sensor_id;sensor_type;location;lat;lon;timestamp;pressure;altitude;pressure_sealevel;temperature;humidity
7026;BME280;3554;42.132;24.786;2023-01-05T00:01:59;99392.19;;;9.77;100.00
7026;BME280;3554;42.132;24.786;2023-01-05T00:04:26;99396.47;;;9.80;100.00
7026;BME280;3554;42.132;24.786;2023-01-05T00:06:53;99396.13;;;9.89;100.00
7026;BME280;3554;42.132;24.786;2023-01-05T00:09:20;99387.09;;;9.74;100.00
7026;BME280;3554;42.132;24.786;2023-01-05T00:11:46;99437.03;;;9.90;100.00
7026;BME280;3554;42.132;24.786;2023-01-05T00:14:33;99444.81;;;9.92;100.00
7026;BME280;3554;42.132;24.786;2023-01-05T00:17:19;99441.38;;;9.66;100.00
7026;BME280;3554;42.132;24.786;2023-01-05T00:20:05;99445.34;;;9.78;100.00
7026;BME280;3554;42.132;24.786;2023-01-05T00:22:51;99430.91;;;9.68;100.00
7026;BME280;3554;42.132;24.786;2023-01-05T00:25:20;99406.00;;;9.58;100.00
7026;BME280;3554;42.132;24.786;2023-01-05T00:27:48;99365.16;;;9.32;100.00
7026;BME280;3554;42.132;24.786;2023-01-05T00:30:19;99337.22;;;9.34;100.00
7026;BME280;3554;42.132;24.786;2023-01-05T00:32:46;99289.75;;;9.23;100.00
7026;BME280;3554;42.132;24.786;2023-01-05T00:35:14;99266.91;;;9.28;100.00
7026;BME280;3554;42.132;24.786;2023-01-05T00:37:41;99241.06;;;9.21;100.00
7026;BME280;3554;42.132;24.786;2023-01-05T00:40:11;99215.81;;;9.21;100.00
7026;BME280;3554;42.132;24.786;2023-01-05T00:42:38;99176.06;;;9.13;100.00
7026;BME280;3554;42.132;24.786;2023-01-05T00:45:07;99168.41;;;9.32;100.00
7026;BME280;3554;42.132;24.786;2023-01-05T00:47:36;99167.84;;;9.24;100.00
7026;BME280;3554;42.132;24.786;2023-01-05T00:50:03;99139.66;;;9.10;100.00
7026;BME280;3554;42.132;24.786;2023-01-05T00:52:30;99116.75;;;9.17;100.00
7026;BME280;3554;42.132;24.786;2023-01-05T00:54:57;99098.56;;;9.15;100.00
7026;BME280;3554;42.132;24.786;2023-01-05T00:57:29;99073.91;;;9.22;100.00
7026;BME280;3554;42.132;24.786;2023-01-05T00:59:56;99052.03;;;9.25;100.00
7026;BME280;3554;42.132;24.786;2023-01-05T01:02:23;99053.50;;;9.32;100.00
7026;BME280;3554;42.132;24.786;2023-01-05T01:04:51;99057.75;;;9.34;100.00
7026;BME280;3554;42.132;24.786;2023-01-05T01:07:18;99022.00;;;9.15;100.00
7026;BME280;3554;42.132;24.786;2023-01-05T01:09:45;99066.78;;;9.47;100.00
7026;BME280;3554;42.132;24.786;2023-01-05T01:12:11;99095.34;;;9.52;100.00
7026;BME280;3554;42.132;24.786;2023-01-05T01:14:38;99132.16;;;9.46;100.00
7026;BME280;3554;42.132;24.786;2023-01-05T01:17:05;99080.16;;;9.18;100.00
7026;BME280;3554;42.132;24.786;2023-01-05T01:19:32;99131.25;;;9.47;100.00
7026;BME280;3554;42.132;24.786;2023-01-05T01:22:00;99150.88;;;9.57;100.00
7026;BME280;3554;42.132;24.786;2023-01-05T01:24:27;99179.72;;;9.54;100.00
7026;BME280;3554;42.132;24.786;2023-01-05T01:26:54;99184.69;;;9.38;100.00
7026;BME280;3554;42.132;24.786;2023-01-05T01:29:22;99165.91;;;9.29;100.00
7026;BME280;3554;42.132;24.786;2023-01-05T01:31:51;99165.78;;;9.32;100.00
7026;BME280;3554;42.132;24.786;2023-01-05T01:34:18;99136.78;;;9.39;100.00
7026;BME280;3554;42.132;24.786;2023-01-05T01:36:45;99133.59;;;9.31;100.00
7026;BME280;3554;42.132;24.786;2023-01-05T01:39:14;99166.22;;;9.43;100.00
7026;BME280;3554;42.132;24.786;2023-01-05T01:41:41;99184.31;;;9.47;100.00
7026;BME280;3554;42.132;24.786;2023-01-05T01:47:14;99214.72;;;9.50;100.00
7026;BME280;3554;42.132;24.786;2023-01-05T01:49:43;99239.09;;;9.50;100.00
7026;BME280;3554;42.132;24.786;2023-01-05T01:52:10;99233.22;;;9.44;100.00
7026;BME280;3554;42.132;24.786;2023-01-05T01:54:39;99244.41;;;9.47;100.00
7026;BME280;3554;42.132;24.786;2023-01-05T01:57:09;99249.75;;;9.44;100.00
7026;BME280;3554;42.132;24.786;2023-01-05T01:59:36;99248.09;;;9.42;100.00
7026;BME280;3554;42.132;24.786;2023-01-05T02:02:03;99243.97;;;9.36;100.00
7026;BME280;3554;42.132;24.786;2023-01-05T02:04:32;99227.53;;;9.34;100.00
7026;BME280;3554;42.132;24.786;2023-01-05T02:07:01;99221.44;;;9.34;100.00
7026;BME280;3554;42.132;24.786;2023-01-05T02:09:28;99210.19;;;9.32;100.00
7026;BME280;3554;42.132;24.786;2023-01-05T02:12:03;99216.78;;;9.19;100.00
7026;BME280;3554;42.132;24.786;2023-01-05T02:14:36;99190.00;;;9.14;100.00
7026;BME280;3554;42.132;24.786;2023-01-05T02:17:14;99172.56;;;9.14;100.00
7026;BME280;3554;42.132;24.786;2023-01-05T02:20:25;99167.47;;;9.11;100.00
7026;BME280;3554;42.132;24.786;2023-01-05T02:23:22;99135.72;;;9.00;100.00
7026;BME280;3554;42.132;24.786;2023-01-05T02:26:09;99128.75;;;8.99;100.00
7026;BME280;3554;42.132;24.786;2023-01-05T02:28:53;99121.00;;;8.98;100.00
7026;BME280;3554;42.132;24.786;2023-01-05T02:31:34;99094.91;;;8.98;100.00
7026;BME280;3554;42.132;24.786;2023-01-05T02:34:10;99086.63;;;8.87;100.00
7026;BME280;3554;42.132;24.786;2023-01-05T02:36:43;99066.22;;;8.75;100.00
7026;BME280;3554;42.132;24.786;2023-01-05T02:39:15;98889.53;;;7.90;100.00
7026;BME280;3554;42.132;24.786;2023-01-05T02:41:47;98978.94;;;8.60;100.00
7026;BME280;3554;42.132;24.786;2023-01-05T02:44:15;98940.19;;;8.73;100.00
7026;BME280;3554;42.132;24.786;2023-01-05T02:46:44;98921.13;;;8.71;100.00
7026;BME280;3554;42.132;24.786;2023-01-05T02:49:14;98919.88;;;8.59;100.00
7026;BME280;3554;42.132;24.786;2023-01-05T02:51:47;98964.22;;;8.81;100.00
7026;BME280;3554;42.132;24.786;2023-01-05T02:54:19;98962.88;;;8.71;100.00
7026;BME280;3554;42.132;24.786;2023-01-05T02:56:51;98977.34;;;8.79;100.00
7026;BME280;3554;42.132;24.786;2023-01-05T02:59:24;98956.84;;;8.70;100.00
7026;BME280;3554;42.132;24.786;2023-01-05T03:01:56;98929.41;;;8.60;100.00
7026;BME280;3554;42.132;24.786;2023-01-05T03:04:28;98938.56;;;8.70;100.00
7026;BME280;3554;42.132;24.786;2023-01-05T03:06:59;98933.41;;;8.69;100.00
7026;BME280;3554;42.132;24.786;2023-01-05T03:09:31;98909.53;;;8.57;100.00
7026;BME280;3554;42.132;24.786;2023-01-05T03:12:07;98913.69;;;8.61;100.00
7026;BME280;3554;42.132;24.786;2023-01-05T03:14:56;98915.69;;;8.55;100.00
7026;BME280;3554;42.132;24.786;2023-01-05T03:17:30;98906.41;;;8.48;100.00
7026;BME280;3554;42.132;24.786;2023-01-05T03:19:59;98900.59;;;8.41;100.00
7026;BME280;3554;42.132;24.786;2023-01-05T03:22:29;98913.28;;;8.29;100.00
7026;BME280;3554;42.132;24.786;2023-01-05T03:25:15;98877.78;;;8.25;100.00
7026;BME280;3554;42.132;24.786;2023-01-05T03:28:01;98815.63;;;8.14;100.00
7026;BME280;3554;42.132;24.786;2023-01-05T03:30:51;98762.53;;;8.17;100.00
7026;BME280;3554;42.132;24.786;2023-01-05T03:33:45;98702.63;;;8.15;100.00
7026;BME280;3554;42.132;24.786;2023-01-05T03:36:36;98631.75;;;8.07;100.00
7026;BME280;3554;42.132;24.786;2023-01-05T03:39:07;98589.97;;;8.09;100.00
7026;BME280;3554;42.132;24.786;2023-01-05T03:41:35;98528.31;;;7.89;100.00
7026;BME280;3554;42.132;24.786;2023-01-05T03:44:04;98495.97;;;8.13;100.00
7026;BME280;3554;42.132;24.786;2023-01-05T03:46:32;98471.16;;;8.25;100.00
7026;BME280;3554;42.132;24.786;2023-01-05T03:49:00;98448.03;;;8.36;100.00
7026;BME280;3554;42.132;24.786;2023-01-05T03:51:27;98463.53;;;8.39;100.00
7026;BME280;3554;42.132;24.786;2023-01-05T03:53:53;98506.97;;;8.40;100.00
7026;BME280;3554;42.132;24.786;2023-01-05T03:56:20;98534.63;;;8.42;100.00
7026;BME280;3554;42.132;24.786;2023-01-05T03:58:47;98560.59;;;8.45;100.00
7026;BME280;3554;42.132;24.786;2023-01-05T04:01:14;98581.44;;;8.45;100.00
7026;BME280;3554;42.132;24.786;2023-01-05T04:03:41;98587.06;;;8.36;100.00
7026;BME280;3554;42.132;24.786;2023-01-05T04:06:09;98648.25;;;8.48;100.00
7026;BME280;3554;42.132;24.786;2023-01-05T04:08:36;98687.75;;;8.39;100.00
7026;BME280;3554;42.132;24.786;2023-01-05T04:11:10;98740.63;;;8.42;100.00
7026;BME280;3554;42.132;24.786;2023-01-05T04:13:37;98751.84;;;8.44;100.00
7026;BME280;3554;42.132;24.786;2023-01-05T04:16:04;98756.25;;;8.42;100.00
7026;BME280;3554;42.132;24.786;2023-01-05T04:18:31;98754.59;;;8.41;100.00
7026;BME280;3554;42.132;24.786;2023-01-05T04:20:58;98760.91;;;8.36;100.00
7026;BME280;3554;42.132;24.786;2023-01-05T04:23:26;98777.66;;;8.50;100.00
7026;BME280;3554;42.132;24.786;2023-01-05T04:25:53;98782.81;;;8.52;100.00
7026;BME280;3554;42.132;24.786;2023-01-05T04:28:20;98788.19;;;8.47;100.00
7026;BME280;3554;42.132;24.786;2023-01-05T04:30:49;98758.47;;;8.31;100.00
7026;BME280;3554;42.132;24.786;2023-01-05T04:33:16;98752.88;;;8.40;100.00
7026;BME280;3554;42.132;24.786;2023-01-05T04:35:43;98753.34;;;8.50;100.00
7026;BME280;3554;42.132;24.786;2023-01-05T04:38:10;98749.81;;;8.51;100.00
7026;BME280;3554;42.132;24.786;2023-01-05T04:40:38;98746.56;;;8.46;100.00
7026;BME280;3554;42.132;24.786;2023-01-05T04:43:06;98721.22;;;8.29;100.00
7026;BME280;3554;42.132;24.786;2023-01-05T04:45:33;98765.66;;;8.46;100.00
7026;BME280;3554;42.132;24.786;2023-01-05T04:47:59;98770.22;;;8.41;100.00
7026;BME280;3554;42.132;24.786;2023-01-05T04:50:26;98771.50;;;8.31;100.00
7026;BME280;3554;42.132;24.786;2023-01-05T04:52:54;98760.75;;;8.17;100.00
7026;BME280;3554;42.132;24.786;2023-01-05T04:55:21;98731.72;;;8.05;100.00
7026;BME280;3554;42.132;24.786;2023-01-05T04:57:49;98677.22;;;8.00;100.00
7026;BME280;3554;42.132;24.786;2023-01-05T05:00:16;98616.72;;;7.94;100.00
7026;BME280;3554;42.132;24.786;2023-01-05T05:02:43;98511.72;;;7.72;100.00
7026;BME280;3554;42.132;24.786;2023-01-05T05:05:09;98474.00;;;7.80;100.00
7026;BME280;3554;42.132;24.786;2023-01-05T05:07:36;98411.66;;;7.57;100.00
7026;BME280;3554;42.132;24.786;2023-01-05T05:10:04;98318.56;;;7.43;100.00
7026;BME280;3554;42.132;24.786;2023-01-05T05:12:31;98232.75;;;7.42;100.00
7026;BME280;3554;42.132;24.786;2023-01-05T05:14:59;98143.31;;;7.43;100.00
7026;BME280;3554;42.132;24.786;2023-01-05T05:17:26;98085.38;;;7.39;100.00
7026;BME280;3554;42.132;24.786;2023-01-05T05:19:52;98056.56;;;7.42;100.00
7026;BME280;3554;42.132;24.786;2023-01-05T05:22:19;98002.94;;;7.40;100.00
7026;BME280;3554;42.132;24.786;2023-01-05T05:24:46;97960.44;;;7.39;100.00
7026;BME280;3554;42.132;24.786;2023-01-05T05:27:13;97891.03;;;7.23;100.00
7026;BME280;3554;42.132;24.786;2023-01-05T05:29:40;97899.06;;;7.35;100.00
7026;BME280;3554;42.132;24.786;2023-01-05T05:32:08;97871.44;;;7.33;100.00
7026;BME280;3554;42.132;24.786;2023-01-05T05:34:34;97842.91;;;7.31;100.00
7026;BME280;3554;42.132;24.786;2023-01-05T05:37:01;97794.88;;;7.37;100.00
7026;BME280;3554;42.132;24.786;2023-01-05T05:39:28;97764.66;;;7.34;100.00
7026;BME280;3554;42.132;24.786;2023-01-05T05:41:55;97722.94;;;7.36;100.00
7026;BME280;3554;42.132;24.786;2023-01-05T05:44:22;97685.94;;;7.31;100.00
7026;BME280;3554;42.132;24.786;2023-01-05T05:46:48;97666.69;;;7.33;100.00
7026;BME280;3554;42.132;24.786;2023-01-05T05:49:16;97611.72;;;7.39;100.00
7026;BME280;3554;42.132;24.786;2023-01-05T05:51:43;97589.91;;;7.42;100.00
7026;BME280;3554;42.132;24.786;2023-01-05T05:54:10;97563.22;;;7.38;100.00
7026;BME280;3554;42.132;24.786;2023-01-05T05:56:37;97514.03;;;7.34;100.00
7026;BME280;3554;42.132;24.786;2023-01-05T05:59:04;97506.31;;;7.32;100.00
7026;BME280;3554;42.132;24.786;2023-01-05T06:01:31;97540.44;;;6.97;100.00
7026;BME280;3554;42.132;24.786;2023-01-05T06:03:57;97492.34;;;7.04;100.00
7026;BME280;3554;42.132;24.786;2023-01-05T06:06:26;97465.81;;;7.13;100.00
7026;BME280;3554;42.132;24.786;2023-01-05T06:08:52;97475.28;;;7.14;100.00
7026;BME280;3554;42.132;24.786;2023-01-05T06:11:19;97520.63;;;7.10;100.00
7026;BME280;3554;42.132;24.786;2023-01-05T06:13:46;97577.84;;;7.10;100.00
7026;BME280;3554;42.132;24.786;2023-01-05T06:16:13;97636.81;;;7.09;100.00
7026;BME280;3554;42.132;24.786;2023-01-05T06:18:40;97699.16;;;7.11;100.00
7026;BME280;3554;42.132;24.786;2023-01-05T06:21:07;97728.44;;;6.99;100.00
7026;BME280;3554;42.132;24.786;2023-01-05T06:23:35;97776.59;;;7.06;100.00
7026;BME280;3554;42.132;24.786;2023-01-05T06:26:02;97786.44;;;7.16;100.00
7026;BME280;3554;42.132;24.786;2023-01-05T06:28:29;97843.84;;;7.13;100.00
7026;BME280;3554;42.132;24.786;2023-01-05T06:30:58;97893.03;;;7.18;100.00
7026;BME280;3554;42.132;24.786;2023-01-05T06:33:25;97930.81;;;7.25;100.00
7026;BME280;3554;42.132;24.786;2023-01-05T06:35:51;97957.94;;;7.21;100.00
7026;BME280;3554;42.132;24.786;2023-01-05T06:38:18;98008.69;;;7.29;100.00
7026;BME280;3554;42.132;24.786;2023-01-05T06:40:47;98075.66;;;7.43;100.00
7026;BME280;3554;42.132;24.786;2023-01-05T06:43:14;98110.03;;;7.49;100.00
7026;BME280;3554;42.132;24.786;2023-01-05T06:45:40;98073.16;;;7.23;100.00
7026;BME280;3554;42.132;24.786;2023-01-05T06:48:07;98182.75;;;7.71;100.00
7026;BME280;3554;42.132;24.786;2023-01-05T06:50:34;98196.78;;;7.50;100.00
7026;BME280;3554;42.132;24.786;2023-01-05T06:53:01;98210.34;;;7.56;100.00
7026;BME280;3554;42.132;24.786;2023-01-05T06:55:28;98226.53;;;7.63;100.00
7026;BME280;3554;42.132;24.786;2023-01-05T06:57:57;98238.03;;;7.76;100.00
7026;BME280;3554;42.132;24.786;2023-01-05T07:00:23;98259.88;;;7.74;100.00
7026;BME280;3554;42.132;24.786;2023-01-05T07:02:50;98272.69;;;7.78;100.00
7026;BME280;3554;42.132;24.786;2023-01-05T07:05:17;98267.13;;;7.86;100.00
7026;BME280;3554;42.132;24.786;2023-01-05T07:07:44;98300.97;;;8.04;100.00
7026;BME280;3554;42.132;24.786;2023-01-05T07:10:11;98360.25;;;7.99;100.00
7026;BME280;3554;42.132;24.786;2023-01-05T07:12:37;98412.31;;;8.01;100.00
7026;BME280;3554;42.132;24.786;2023-01-05T07:15:07;98428.50;;;8.07;100.00
7026;BME280;3554;42.132;24.786;2023-01-05T07:17:34;98446.22;;;7.99;100.00
7026;BME280;3554;42.132;24.786;2023-01-05T07:20:02;98428.41;;;8.09;100.00
7026;BME280;3554;42.132;24.786;2023-01-05T07:22:29;98413.66;;;8.28;100.00
7026;BME280;3554;42.132;24.786;2023-01-05T07:24:56;98427.25;;;8.34;100.00
7026;BME280;3554;42.132;24.786;2023-01-05T07:27:23;98458.03;;;8.45;100.00
7026;BME280;3554;42.132;24.786;2023-01-05T07:29:50;98463.66;;;8.54;100.00
7026;BME280;3554;42.132;24.786;2023-01-05T07:32:18;98518.16;;;8.60;100.00
7026;BME280;3554;42.132;24.786;2023-01-05T07:34:45;98543.53;;;8.76;100.00
7026;BME280;3554;42.132;24.786;2023-01-05T07:37:12;98577.38;;;8.77;100.00
7026;BME280;3554;42.132;24.786;2023-01-05T07:39:39;98602.81;;;8.91;100.00
7026;BME280;3554;42.132;24.786;2023-01-05T07:42:05;98628.56;;;8.98;100.00
7026;BME280;3554;42.132;24.786;2023-01-05T07:44:32;98675.50;;;9.18;100.00
7026;BME280;3554;42.132;24.786;2023-01-05T07:46:59;98747.31;;;9.27;100.00
7026;BME280;3554;42.132;24.786;2023-01-05T07:49:27;98861.56;;;9.22;100.00
7026;BME280;3554;42.132;24.786;2023-01-05T07:51:55;98898.69;;;9.28;100.00
7026;BME280;3554;42.132;24.786;2023-01-05T07:54:21;98941.13;;;9.13;100.00
7026;BME280;3554;42.132;24.786;2023-01-05T07:56:48;99037.22;;;9.47;100.00
7026;BME280;3554;42.132;24.786;2023-01-05T07:59:17;99087.06;;;9.41;100.00
7026;BME280;3554;42.132;24.786;2023-01-05T08:01:44;99123.63;;;9.19;100.00
7026;BME280;3554;42.132;24.786;2023-01-05T08:04:11;99129.59;;;9.23;100.00
7026;BME280;3554;42.132;24.786;2023-01-05T08:06:39;99120.34;;;9.14;100.00
7026;BME280;3554;42.132;24.786;2023-01-05T08:09:06;99094.63;;;9.27;100.00
7026;BME280;3554;42.132;24.786;2023-01-05T08:11:46;99075.13;;;9.35;100.00
7026;BME280;3554;42.132;24.786;2023-01-05T08:14:13;99133.59;;;9.53;100.00
7026;BME280;3554;42.132;24.786;2023-01-05T08:16:40;99181.47;;;9.53;100.00
7026;BME280;3554;42.132;24.786;2023-01-05T08:19:08;99209.56;;;9.48;100.00
7026;BME280;3554;42.132;24.786;2023-01-05T08:21:35;99200.53;;;9.34;100.00
7026;BME280;3554;42.132;24.786;2023-01-05T08:24:03;99272.69;;;9.36;100.00
7026;BME280;3554;42.132;24.786;2023-01-05T08:26:30;99269.31;;;9.11;100.00
7026;BME280;3554;42.132;24.786;2023-01-05T08:28:57;99286.94;;;9.05;100.00
7026;BME280;3554;42.132;24.786;2023-01-05T08:31:26;99259.03;;;9.30;100.00
7026;BME280;3554;42.132;24.786;2023-01-05T08:33:54;99280.91;;;9.26;100.00
7026;BME280;3554;42.132;24.786;2023-01-05T08:36:23;99281.50;;;9.34;100.00
7026;BME280;3554;42.132;24.786;2023-01-05T08:38:51;99288.75;;;9.49;100.00
7026;BME280;3554;42.132;24.786;2023-01-05T08:41:21;99264.50;;;9.45;100.00
7026;BME280;3554;42.132;24.786;2023-01-05T08:43:51;99306.94;;;9.75;100.00
7026;BME280;3554;42.132;24.786;2023-01-05T08:46:19;99330.47;;;9.75;100.00
7026;BME280;3554;42.132;24.786;2023-01-05T08:48:49;99327.31;;;9.89;100.00
7026;BME280;3554;42.132;24.786;2023-01-05T08:51:16;99324.22;;;10.01;100.00
7026;BME280;3554;42.132;24.786;2023-01-05T08:53:43;99331.31;;;10.20;100.00
7026;BME280;3554;42.132;24.786;2023-01-05T08:56:10;99340.75;;;10.46;100.00
7026;BME280;3554;42.132;24.786;2023-01-05T08:58:39;99342.19;;;10.53;100.00
7026;BME280;3554;42.132;24.786;2023-01-05T09:01:06;99398.91;;;10.74;100.00
7026;BME280;3554;42.132;24.786;2023-01-05T09:03:33;99433.16;;;10.90;100.00
7026;BME280;3554;42.132;24.786;2023-01-05T09:06:00;99478.34;;;10.73;100.00
7026;BME280;3554;42.132;24.786;2023-01-05T09:08:28;99465.78;;;10.59;100.00
7026;BME280;3554;42.132;24.786;2023-01-05T09:11:04;99490.47;;;10.75;100.00
7026;BME280;3554;42.132;24.786;2023-01-05T09:13:32;99490.72;;;10.69;100.00
7026;BME280;3554;42.132;24.786;2023-01-05T09:16:05;99503.63;;;10.74;100.00
7026;BME280;3554;42.132;24.786;2023-01-05T09:18:32;99502.06;;;10.68;100.00
7026;BME280;3554;42.132;24.786;2023-01-05T09:20:59;99510.56;;;10.75;100.00
7026;BME280;3554;42.132;24.786;2023-01-05T09:23:26;99516.50;;;11.00;100.00
7026;BME280;3554;42.132;24.786;2023-01-05T09:25:53;99522.31;;;11.08;100.00
7026;BME280;3554;42.132;24.786;2023-01-05T09:28:19;99549.91;;;11.17;100.00
7026;BME280;3554;42.132;24.786;2023-01-05T09:30:46;99547.47;;;11.34;100.00
7026;BME280;3554;42.132;24.786;2023-01-05T09:33:14;99547.41;;;11.55;100.00
7026;BME280;3554;42.132;24.786;2023-01-05T09:35:42;99566.88;;;11.71;100.00
7026;BME280;3554;42.132;24.786;2023-01-05T09:38:08;99577.63;;;11.85;100.00
7026;BME280;3554;42.132;24.786;2023-01-05T09:40:38;99572.28;;;11.89;100.00
7026;BME280;3554;42.132;24.786;2023-01-05T09:43:10;99607.50;;;12.03;100.00
7026;BME280;3554;42.132;24.786;2023-01-05T09:45:43;99620.75;;;12.20;100.00
7026;BME280;3554;42.132;24.786;2023-01-05T09:48:12;99597.66;;;12.08;100.00
7026;BME280;3554;42.132;24.786;2023-01-05T09:50:42;99630.59;;;12.35;100.00
7026;BME280;3554;42.132;24.786;2023-01-05T09:53:14;99636.59;;;12.37;100.00
7026;BME280;3554;42.132;24.786;2023-01-05T09:55:43;99645.66;;;12.50;100.00
7026;BME280;3554;42.132;24.786;2023-01-05T09:58:15;99643.81;;;12.52;100.00
7026;BME280;3554;42.132;24.786;2023-01-05T10:00:45;99624.09;;;12.62;100.00
7026;BME280;3554;42.132;24.786;2023-01-05T10:03:17;99631.72;;;12.68;100.00
7026;BME280;3554;42.132;24.786;2023-01-05T10:05:46;99590.28;;;12.55;100.00
7026;BME280;3554;42.132;24.786;2023-01-05T10:08:17;99631.41;;;12.74;100.00
7026;BME280;3554;42.132;24.786;2023-01-05T10:10:46;99619.06;;;12.76;100.00
7026;BME280;3554;42.132;24.786;2023-01-05T10:13:38;99607.59;;;12.98;100.00
7026;BME280;3554;42.132;24.786;2023-01-05T10:16:05;99610.31;;;13.15;100.00
7026;BME280;3554;42.132;24.786;2023-01-05T10:18:32;99587.44;;;13.17;100.00
7026;BME280;3554;42.132;24.786;2023-01-05T10:21:09;99606.91;;;13.31;100.00
7026;BME280;3554;42.132;24.786;2023-01-05T10:23:51;99611.72;;;13.22;100.00
7026;BME280;3554;42.132;24.786;2023-01-05T10:26:24;99582.75;;;13.23;100.00
7026;BME280;3554;42.132;24.786;2023-01-05T10:28:57;99589.41;;;13.30;100.00
7026;BME280;3554;42.132;24.786;2023-01-05T10:31:36;99586.66;;;13.50;100.00
7026;BME280;3554;42.132;24.786;2023-01-05T10:34:18;99589.22;;;13.69;100.00
7026;BME280;3554;42.132;24.786;2023-01-05T10:37:17;99587.53;;;13.68;100.00
7026;BME280;3554;42.132;24.786;2023-01-05T10:40:02;99589.91;;;13.38;100.00
7026;BME280;3554;42.132;24.786;2023-01-05T10:42:52;99590.00;;;13.54;100.00
7026;BME280;3554;42.132;24.786;2023-01-05T10:45:27;99559.09;;;13.23;100.00
7026;BME280;3554;42.132;24.786;2023-01-05T10:47:55;99565.84;;;13.10;100.00
7026;BME280;3554;42.132;24.786;2023-01-05T10:50:31;99516.59;;;12.59;100.00
7026;BME280;3554;42.132;24.786;2023-01-05T10:53:09;99561.34;;;12.75;100.00
7026;BME280;3554;42.132;24.786;2023-01-05T10:55:43;99547.72;;;12.85;100.00
7026;BME280;3554;42.132;24.786;2023-01-05T10:58:23;99538.75;;;13.27;100.00
7026;BME280;3554;42.132;24.786;2023-01-05T11:00:53;99541.81;;;13.53;100.00
7026;BME280;3554;42.132;24.786;2023-01-05T11:03:27;99546.69;;;13.61;100.00
7026;BME280;3554;42.132;24.786;2023-01-05T11:05:55;99544.28;;;13.73;100.00
7026;BME280;3554;42.132;24.786;2023-01-05T11:08:26;99533.84;;;13.72;100.00
7026;BME280;3554;42.132;24.786;2023-01-05T11:10:55;99533.59;;;13.76;100.00
7026;BME280;3554;42.132;24.786;2023-01-05T11:13:31;99536.47;;;13.89;100.00
7026;BME280;3554;42.132;24.786;2023-01-05T11:16:05;99545.13;;;13.91;100.00
7026;BME280;3554;42.132;24.786;2023-01-05T11:18:37;99529.94;;;13.96;100.00
7026;BME280;3554;42.132;24.786;2023-01-05T11:21:10;99510.47;;;13.83;100.00
7026;BME280;3554;42.132;24.786;2023-01-05T11:23:40;99527.34;;;13.79;100.00
7026;BME280;3554;42.132;24.786;2023-01-05T11:26:26;99533.78;;;13.73;100.00
7026;BME280;3554;42.132;24.786;2023-01-05T11:29:10;99521.69;;;13.69;100.00
7026;BME280;3554;42.132;24.786;2023-01-05T11:31:41;99515.50;;;13.87;100.00
7026;BME280;3554;42.132;24.786;2023-01-05T11:34:19;99514.25;;;13.94;100.00
7026;BME280;3554;42.132;24.786;2023-01-05T11:36:51;99515.41;;;14.06;100.00
7026;BME280;3554;42.132;24.786;2023-01-05T11:39:25;99505.63;;;14.08;100.00
7026;BME280;3554;42.132;24.786;2023-01-05T11:42:08;99501.34;;;14.23;100.00
7026;BME280;3554;42.132;24.786;2023-01-05T11:44:35;99488.94;;;14.25;100.00
7026;BME280;3554;42.132;24.786;2023-01-05T11:47:04;99493.28;;;14.26;100.00
7026;BME280;3554;42.132;24.786;2023-01-05T11:49:32;99500.28;;;14.27;100.00
7026;BME280;3554;42.132;24.786;2023-01-05T11:52:01;99499.41;;;14.26;100.00
7026;BME280;3554;42.132;24.786;2023-01-05T11:54:34;99481.63;;;14.14;100.00
7026;BME280;3554;42.132;24.786;2023-01-05T11:57:14;99496.84;;;14.25;100.00
7026;BME280;3554;42.132;24.786;2023-01-05T11:59:43;99498.19;;;14.16;100.00
7026;BME280;3554;42.132;24.786;2023-01-05T12:02:55;99503.63;;;14.13;100.00
7026;BME280;3554;42.132;24.786;2023-01-05T12:05:32;99487.16;;;14.10;100.00
7026;BME280;3554;42.132;24.786;2023-01-05T12:08:06;99482.19;;;14.04;100.00
7026;BME280;3554;42.132;24.786;2023-01-05T12:11:04;99471.97;;;13.97;100.00
7026;BME280;3554;42.132;24.786;2023-01-05T12:13:52;99322.13;;;13.14;100.00
7026;BME280;3554;42.132;24.786;2023-01-05T12:16:44;99481.19;;;13.89;100.00
7026;BME280;3554;42.132;24.786;2023-01-05T12:19:33;99477.63;;;14.07;100.00
7026;BME280;3554;42.132;24.786;2023-01-05T12:22:27;99476.63;;;14.10;100.00
7026;BME280;3554;42.132;24.786;2023-01-05T12:25:15;99470.66;;;14.06;100.00
7026;BME280;3554;42.132;24.786;2023-01-05T12:28:00;99474.69;;;13.96;100.00
7026;BME280;3554;42.132;24.786;2023-01-05T12:30:38;99479.06;;;14.13;100.00
7026;BME280;3554;42.132;24.786;2023-01-05T12:33:20;99468.75;;;14.25;100.00
7026;BME280;3554;42.132;24.786;2023-01-05T12:36:20;99473.47;;;14.36;100.00
7026;BME280;3554;42.132;24.786;2023-01-05T12:39:00;99474.81;;;14.43;100.00
7026;BME280;3554;42.132;24.786;2023-01-05T12:41:59;99453.16;;;14.53;100.00
7026;BME280;3554;42.132;24.786;2023-01-05T12:44:47;99461.56;;;14.60;100.00
7026;BME280;3554;42.132;24.786;2023-01-05T12:47:38;99469.06;;;14.67;100.00
7026;BME280;3554;42.132;24.786;2023-01-05T12:50:21;99471.94;;;14.78;100.00
7026;BME280;3554;42.132;24.786;2023-01-05T12:52:51;99451.19;;;14.72;100.00
7026;BME280;3554;42.132;24.786;2023-01-05T12:55:22;99476.03;;;14.84;100.00
7026;BME280;3554;42.132;24.786;2023-01-05T12:57:51;99474.50;;;14.64;100.00
7026;BME280;3554;42.132;24.786;2023-01-05T13:00:24;99474.06;;;14.56;100.00
7026;BME280;3554;42.132;24.786;2023-01-05T13:02:57;99465.72;;;14.64;100.00
7026;BME280;3554;42.132;24.786;2023-01-05T13:05:27;99458.59;;;14.66;100.00
7026;BME280;3554;42.132;24.786;2023-01-05T13:08:00;99469.13;;;14.81;100.00
7026;BME280;3554;42.132;24.786;2023-01-05T13:10:36;99469.97;;;14.82;100.00
7026;BME280;3554;42.132;24.786;2023-01-05T13:13:11;99467.44;;;14.80;100.00
7026;BME280;3554;42.132;24.786;2023-01-05T13:15:42;99470.56;;;14.87;100.00
7026;BME280;3554;42.132;24.786;2023-01-05T13:18:14;99473.88;;;14.90;100.00
7026;BME280;3554;42.132;24.786;2023-01-05T13:20:44;99465.78;;;14.93;100.00
7026;BME280;3554;42.132;24.786;2023-01-05T13:23:15;99458.06;;;14.90;100.00
7026;BME280;3554;42.132;24.786;2023-01-05T13:25:49;99471.50;;;15.01;100.00
7026;BME280;3554;42.132;24.786;2023-01-05T13:28:19;99452.22;;;14.85;100.00
7026;BME280;3554;42.132;24.786;2023-01-05T13:30:56;99482.13;;;15.00;100.00
7026;BME280;3554;42.132;24.786;2023-01-05T13:33:38;99476.44;;;14.92;100.00